createdAt,value
2023-04-18T09:49:55.954Z,12.10
2023-04-18T09:52:26.008Z,12.20
2023-04-18T09:54:58.654Z,12.10
2023-04-18T09:57:30.624Z,12.30
2023-04-18T10:00:08.818Z,12.30
2023-04-18T10:03:04.811Z,12.20
2023-04-18T10:05:34.738Z,12.40
2023-04-18T10:08:04.380Z,12.30
2023-04-18T10:10:32.116Z,12.30
2023-04-18T10:13:01.004Z,12.20
2023-04-18T10:15:29.847Z,12.40
2023-04-18T10:18:24.697Z,12.40
2023-04-18T10:21:03.341Z,12.50
2023-04-18T10:23:37.826Z,12.50
2023-04-18T10:26:11.483Z,12.60
2023-04-18T10:28:58.876Z,12.70
2023-04-18T10:31:29.571Z,12.70
2023-04-18T10:34:05.388Z,12.40
2023-04-18T10:36:33.065Z,12.50
2023-04-18T10:39:05.821Z,12.60
2023-04-18T10:41:33.713Z,12.80
2023-04-18T10:44:18.162Z,12.90
2023-04-18T10:46:48.302Z,13.00
2023-04-18T10:49:31.990Z,13.10
2023-04-18T10:52:01.801Z,13.30
2023-04-18T10:54:58.422Z,13.20
2023-04-18T10:57:38.781Z,13.30
2023-04-18T11:00:13.846Z,13.60
2023-04-18T11:02:48.214Z,13.40
2023-04-18T11:05:21.020Z,13.80
2023-04-18T11:07:49.071Z,13.80
2023-04-18T11:10:24.556Z,13.90
2023-04-18T11:12:52.564Z,14.00
2023-04-18T11:15:24.334Z,14.10
2023-04-18T11:18:05.007Z,14.10
2023-04-18T11:20:39.919Z,13.90
2023-04-18T11:23:17.171Z,14.20
2023-04-18T11:25:45.000Z,14.10
2023-04-18T11:28:13.646Z,14.40
2023-04-18T11:30:41.600Z,14.00
2023-04-18T11:33:12.649Z,14.40
2023-04-18T11:35:44.735Z,14.40
2023-04-18T11:38:13.554Z,14.30
2023-04-18T11:40:50.096Z,14.30
2023-04-18T11:43:25.011Z,14.20
2023-04-18T11:45:59.793Z,14.30
2023-04-18T11:48:45.195Z,14.30
2023-04-18T11:51:32.310Z,14.00
2023-04-18T11:53:59.215Z,14.20
2023-04-18T11:56:26.324Z,14.00
2023-04-18T11:58:53.437Z,14.00
2023-04-18T12:01:22.389Z,14.20
2023-04-18T12:04:06.606Z,14.50
2023-04-18T12:06:50.510Z,14.10
2023-04-18T12:09:17.886Z,13.90
2023-04-18T12:11:56.289Z,13.90
2023-04-18T12:14:23.249Z,14.10
2023-04-18T12:16:50.874Z,14.00
2023-04-18T12:19:20.555Z,14.20
2023-04-18T12:22:00.519Z,14.50
2023-04-18T12:24:29.032Z,14.30
2023-04-18T12:26:58.110Z,14.40
2023-04-18T12:29:27.426Z,14.40
2023-04-18T12:31:54.828Z,14.10
2023-04-18T12:34:21.901Z,14.10
2023-04-18T12:36:49.335Z,14.20
2023-04-18T12:39:16.422Z,13.90
2023-04-18T12:41:44.297Z,13.60
2023-04-18T12:44:11.583Z,13.40
2023-04-18T12:46:38.760Z,13.70
2023-04-18T12:49:05.904Z,13.90
2023-04-18T12:51:33.207Z,14.10
2023-04-18T12:54:00.657Z,14.10
2023-04-18T12:56:27.790Z,14.20
2023-04-18T12:58:54.757Z,14.20
2023-04-18T13:01:22.032Z,14.20
2023-04-18T13:04:10.864Z,14.00
2023-04-18T13:06:40.073Z,14.10
2023-04-18T13:09:07.476Z,14.20
2023-04-18T13:11:49.066Z,14.50
2023-04-18T13:14:36.463Z,14.80
2023-04-18T13:17:20.228Z,14.60
2023-04-18T13:20:00.109Z,14.40
2023-04-18T13:22:48.909Z,14.50
2023-04-18T13:25:29.273Z,14.90
2023-04-18T13:28:03.016Z,14.50
2023-04-18T13:30:35.774Z,14.60
2023-04-18T13:33:14.565Z,14.50
2023-04-18T13:35:44.262Z,14.50
2023-04-18T13:39:02.793Z,14.10
2023-04-18T13:41:13.924Z,14.60
2023-04-18T13:43:55.636Z,14.80
2023-04-18T13:46:37.362Z,14.30
2023-04-18T13:49:04.576Z,14.60
2023-04-18T13:51:43.914Z,14.40
2023-04-18T13:54:16.034Z,14.50
2023-04-18T13:56:56.591Z,14.30
2023-04-18T13:59:39.703Z,14.50
2023-04-18T14:02:34.662Z,15.00
2023-04-18T14:05:04.950Z,15.50
2023-04-18T14:07:46.352Z,14.80
2023-04-18T14:10:26.240Z,15.20
2023-04-18T14:12:56.695Z,15.00
2023-04-18T14:15:38.029Z,15.40
2023-04-18T14:18:10.507Z,15.60
2023-04-18T14:20:38.971Z,15.80
2023-04-18T14:23:11.924Z,15.80
2023-04-18T14:28:35.647Z,15.60
2023-04-18T14:31:27.913Z,15.70
2023-04-18T14:34:05.242Z,15.70
2023-04-18T14:36:40.374Z,16.00
2023-04-18T14:39:25.328Z,16.00
2023-04-18T14:42:17.183Z,15.70
2023-04-18T14:45:20.958Z,15.50
2023-04-18T14:47:55.933Z,15.50
2023-04-18T14:50:27.913Z,15.40
2023-04-18T14:52:55.046Z,15.40
2023-04-18T14:55:29.721Z,14.90
2023-04-18T14:58:01.371Z,15.60
2023-04-18T15:00:38.343Z,15.50
2023-04-18T15:03:08.302Z,15.60
2023-04-18T15:05:50.693Z,15.60
2023-04-18T15:08:32.664Z,15.80
2023-04-18T15:11:18.903Z,15.90
2023-04-18T15:14:13.367Z,15.90
2023-04-18T15:17:07.631Z,16.00
2023-04-18T15:20:10.879Z,15.70
2023-04-18T15:22:41.576Z,15.90
2023-04-18T15:25:18.681Z,16.10
2023-04-18T15:27:59.647Z,15.70
2023-04-18T15:30:35.605Z,15.50
2023-04-18T15:33:18.265Z,15.70
2023-04-18T15:35:53.955Z,15.90
2023-04-18T15:38:27.922Z,15.40
2023-04-18T15:40:59.047Z,15.30
2023-04-18T15:43:38.542Z,15.00
2023-04-18T15:46:05.651Z,15.10
2023-04-18T15:51:55.753Z,15.40
2023-04-18T15:54:26.212Z,15.90
2023-04-18T15:57:00.760Z,15.20
2023-04-18T15:59:37.183Z,14.60
2023-04-18T16:02:10.378Z,14.60
2023-04-18T16:04:51.547Z,14.60
2023-04-18T16:07:18.856Z,15.00
2023-04-18T16:10:08.583Z,15.10
2023-04-18T16:12:56.176Z,15.10
2023-04-18T16:15:27.294Z,14.80
2023-04-18T16:17:58.970Z,14.80
2023-04-18T16:20:38.069Z,15.00
2023-04-18T16:23:28.668Z,14.70
2023-04-18T16:26:03.356Z,14.60
2023-04-18T16:28:39.223Z,14.40
2023-04-18T16:31:10.160Z,14.30
2023-04-18T16:33:37.285Z,14.40
2023-04-18T16:36:05.104Z,14.40
2023-04-18T16:38:32.331Z,14.50
2023-04-18T16:41:01.515Z,14.10
2023-04-18T16:43:30.996Z,14.10
2023-04-18T16:45:59.002Z,13.90
2023-04-18T16:48:42.604Z,13.60
2023-04-18T16:51:17.976Z,13.80
2023-04-18T16:53:46.925Z,13.90
2023-04-18T16:56:24.348Z,13.70
2023-04-18T16:58:55.209Z,13.80
2023-04-18T17:01:33.329Z,13.50
2023-04-18T17:04:19.931Z,13.60
2023-04-18T17:07:10.266Z,13.60
2023-04-18T17:09:45.240Z,13.80
2023-04-18T17:12:22.815Z,14.00
2023-04-18T17:14:51.173Z,13.90
2023-04-18T17:17:28.573Z,14.00
2023-04-18T17:19:56.109Z,13.90
2023-04-18T17:22:23.339Z,13.80
2023-04-18T17:24:50.284Z,13.70
2023-04-18T17:27:19.853Z,13.50
2023-04-18T17:29:48.809Z,13.10
2023-04-18T17:32:16.178Z,12.80
2023-04-18T17:34:53.772Z,12.70
2023-04-18T17:37:24.244Z,12.70
2023-04-18T17:40:05.937Z,12.60
2023-04-18T17:42:44.428Z,12.70
2023-04-18T17:45:46.819Z,12.70
2023-04-18T17:48:16.356Z,12.50
2023-04-18T17:50:59.936Z,12.20
2023-04-18T17:53:27.363Z,12.10
2023-04-18T17:55:55.552Z,12.20
2023-04-18T18:52:43.696Z,9.80
2023-04-18T18:55:11.678Z,9.80
2023-04-18T18:57:38.808Z,9.70
